Time,TemperatureF,DewpointF,PressureIn,WindDirection,WindDirectionDegrees,WindSpeedMPH,WindSpeedGustMPH,Humidity,HourlyPrecipIn,Conditions,Clouds,dailyrainin,SoftwareType,DateUTC
2013-12-09 00:00:00,64.3,64.3,30.04,North,32767,0.0,0.0,100,0.00,,,0.00,Wunderground v.1.15,2013-12-09 06:00:00,
2013-12-09 00:05:00,64.3,64.3,30.04,North,32767,0.0,0.0,100,0.00,,,0.00,Wunderground v.1.15,2013-12-09 06:05:00,
2013-12-09 00:10:00,64.3,64.3,30.04,North,32767,0.0,0.0,100,0.00,,,0.00,Wunderground v.1.15,2013-12-09 06:10:00,
2013-12-09 00:15:00,64.2,64.2,30.05,North,32767,0.0,0.0,100,0.00,,,0.00,Wunderground v.1.15,2013-12-09 06:15:00,
2013-12-09 00:20:00,64.2,64.2,30.05,North,32767,0.0,0.0,100,0.00,,,0.00,Wunderground v.1.15,2013-12-09 06:20:00,
2013-12-09 00:25:00,64.2,64.2,30.04,North,32767,0.0,0.0,100,0.00,,,0.00,Wunderground v.1.15,2013-12-09 06:25:00,
2013-12-09 00:30:00,64.1,64.1,30.04,North,32767,0.0,0.0,100,0.00,,,0.00,Wunderground v.1.15,2013-12-09 06:30:00,
2013-12-09 00:35:00,64.2,64.2,30.04,North,32767,0.0,0.0,100,0.00,,,0.00,Wunderground v.1.15,2013-12-09 06:35:00,
2013-12-09 00:40:00,64.3,64.3,30.03,North,32767,0.0,0.0,100,0.00,,,0.00,Wunderground v.1.15,2013-12-09 06:40:00,
2013-12-09 00:50:00,64.5,64.5,30.03,North,32767,0.0,0.0,100,0.00,,,0.00,Wunderground v.1.15,2013-12-09 06:50:00,
2013-12-09 00:55:00,64.5,64.5,30.03,North,32767,0.0,0.0,100,0.00,,,0.00,Wunderground v.1.15,2013-12-09 06:55:00,
2013-12-09 01:00:00,64.6,64.6,30.03,North,32767,0.0,0.0,100,0.00,,,0.00,Wunderground v.1.15,2013-12-09 07:00:00,
2013-12-09 01:05:00,64.6,64.6,30.03,North,32767,0.0,0.0,100,0.00,,,0.00,Wunderground v.1.15,2013-12-09 07:05:00,
2013-12-09 01:10:00,64.6,64.6,30.03,North,32767,0.0,0.0,100,0.00,,,0.00,Wunderground v.1.15,2013-12-09 07:10:00,
2013-12-09 01:15:00,64.6,64.6,30.03,North,32767,0.0,0.0,100,0.00,,,0.00,Wunderground v.1.15,2013-12-09 07:15:00,
2013-12-09 01:20:00,64.7,64.7,30.03,North,32767,0.0,0.0,100,0.00,,,0.00,Wunderground v.1.15,2013-12-09 07:20:00,
2013-12-09 01:25:00,64.8,64.8,30.03,North,32767,0.0,0.0,100,0.00,,,0.00,Wunderground v.1.15,2013-12-09 07:25:00,
2013-12-09 01:30:00,64.8,64.8,30.03,North,32767,0.0,0.0,100,0.00,,,0.00,Wunderground v.1.15,2013-12-09 07:30:00,
2013-12-09 01:35:00,64.7,64.7,30.03,North,32767,0.0,0.0,100,0.00,,,0.00,Wunderground v.1.15,2013-12-09 07:35:00,
2013-12-09 01:40:00,64.7,64.7,30.03,North,32767,0.0,0.0,100,0.00,,,0.00,Wunderground v.1.15,2013-12-09 07:40:00,
2013-12-09 01:45:00,64.8,64.8,30.03,North,32767,0.0,0.0,100,0.00,,,0.00,Wunderground v.1.15,2013-12-09 07:45:00,
2013-12-09 01:50:00,64.9,64.9,30.03,North,32767,0.0,0.0,100,0.00,,,0.00,Wunderground v.1.15,2013-12-09 07:50:00,
2013-12-09 01:55:00,64.9,64.9,30.03,North,32767,0.0,0.0,100,0.00,,,0.00,Wunderground v.1.15,2013-12-09 07:55:00,
2013-12-09 02:00:00,65.1,65.1,30.03,North,32767,0.0,0.0,100,0.00,,,0.00,Wunderground v.1.15,2013-12-09 08:00:00,
2013-12-09 02:05:00,65.2,65.2,30.03,North,32767,0.0,0.0,100,0.00,,,0.00,Wunderground v.1.15,2013-12-09 08:05:00,
2013-12-09 02:10:00,65.3,65.3,30.03,North,32767,0.0,0.0,100,0.00,,,0.00,Wunderground v.1.15,2013-12-09 08:10:00,
2013-12-09 02:15:00,65.6,65.6,30.03,North,32767,0.0,0.0,100,0.00,,,0.00,Wunderground v.1.15,2013-12-09 08:15:00,
2013-12-09 02:20:00,65.9,65.9,30.03,North,32767,0.0,0.0,100,0.00,,,0.00,Wunderground v.1.15,2013-12-09 08:20:00,
2013-12-09 02:25:00,66.4,66.4,30.02,North,32767,0.0,0.0,100,0.00,,,0.00,Wunderground v.1.15,2013-12-09 08:25:00,
2013-12-09 02:30:00,66.8,66.8,30.02,North,32767,0.0,0.0,100,0.00,,,0.00,Wunderground v.1.15,2013-12-09 08:30:00,
2013-12-09 02:40:00,66.8,66.8,30.02,North,32767,0.0,0.0,100,0.00,,,0.00,Wunderground v.1.15,2013-12-09 08:40:00,
2013-12-09 02:45:00,66.9,66.9,30.02,North,32767,0.0,0.0,100,0.00,,,0.00,Wunderground v.1.15,2013-12-09 08:45:00,
2013-12-09 02:50:00,66.8,66.8,30.02,North,32767,0.0,0.0,100,0.00,,,0.00,Wunderground v.1.15,2013-12-09 08:50:00,
2013-12-09 02:55:00,66.5,66.5,30.02,North,32767,0.0,0.0,100,0.00,,,0.00,Wunderground v.1.15,2013-12-09 08:55:00,
2013-12-09 03:00:00,66.3,66.3,30.02,North,32767,0.0,0.0,100,0.00,,,0.00,Wunderground v.1.15,2013-12-09 09:00:00,
2013-12-09 03:05:00,66.2,66.2,30.02,North,32767,0.0,0.0,100,0.00,,,0.00,Wunderground v.1.15,2013-12-09 09:05:00,
2013-12-09 03:10:00,66.1,66.1,30.02,North,32767,0.0,0.0,100,0.00,,,0.00,Wunderground v.1.15,2013-12-09 09:10:00,
2013-12-09 03:15:00,66.0,66.0,30.02,North,32767,0.0,0.0,100,0.00,,,0.00,Wunderground v.1.15,2013-12-09 09:15:00,
2013-12-09 03:20:00,65.8,65.8,30.02,North,32767,0.0,0.0,100,0.00,,,0.00,Wunderground v.1.15,2013-12-09 09:20:00,
2013-12-09 03:25:00,65.4,65.4,30.02,North,32767,0.0,0.0,100,0.00,,,0.00,Wunderground v.1.15,2013-12-09 09:25:00,
2013-12-09 03:30:00,65.1,65.1,30.03,North,32767,0.0,0.0,100,0.00,,,0.00,Wunderground v.1.15,2013-12-09 09:30:00,
2013-12-09 03:35:00,65.3,65.3,30.03,North,32767,0.0,0.0,100,0.00,,,0.00,Wunderground v.1.15,2013-12-09 09:35:00,
2013-12-09 03:40:00,65.6,65.6,30.03,North,32767,0.0,0.0,100,0.00,,,0.00,Wunderground v.1.15,2013-12-09 09:40:00,
2013-12-09 03:45:00,65.7,65.7,30.03,North,32767,0.0,0.0,100,0.00,,,0.00,Wunderground v.1.15,2013-12-09 09:45:00,
2013-12-09 03:50:00,65.4,65.4,30.03,North,32767,0.0,0.0,100,0.00,,,0.00,Wunderground v.1.15,2013-12-09 09:50:00,
2013-12-09 03:55:00,65.2,65.2,30.03,North,32767,0.0,0.0,100,0.00,,,0.00,Wunderground v.1.15,2013-12-09 09:55:00,
2013-12-09 04:00:00,65.0,65.0,30.03,North,32767,0.0,0.0,100,0.00,,,0.00,Wunderground v.1.15,2013-12-09 10:00:00,
2013-12-09 04:05:00,64.9,64.9,30.03,North,32767,0.0,0.0,100,0.00,,,0.00,Wunderground v.1.15,2013-12-09 10:05:00,
2013-12-09 04:15:00,64.9,64.9,30.03,North,32767,0.0,0.0,100,0.00,,,0.00,Wunderground v.1.15,2013-12-09 10:15:00,
2013-12-09 04:20:00,64.9,64.9,30.03,North,32767,0.0,0.0,100,0.00,,,0.00,Wunderground v.1.15,2013-12-09 10:20:00,
2013-12-09 04:25:00,64.9,64.9,30.03,North,32767,0.0,0.0,100,0.00,,,0.00,Wunderground v.1.15,2013-12-09 10:25:00,
2013-12-09 04:30:00,64.8,64.8,30.03,North,32767,0.0,0.0,100,0.00,,,0.00,Wunderground v.1.15,2013-12-09 10:30:00,
2013-12-09 04:35:00,64.9,64.9,30.03,North,32767,0.0,0.0,100,0.00,,,0.00,Wunderground v.1.15,2013-12-09 10:35:00,
2013-12-09 04:40:00,64.9,64.9,30.03,North,32767,0.0,0.0,100,0.00,,,0.00,Wunderground v.1.15,2013-12-09 10:40:00,
2013-12-09 04:45:00,64.9,64.9,30.03,North,32767,0.0,0.0,100,0.00,,,0.00,Wunderground v.1.15,2013-12-09 10:45:00,
2013-12-09 04:50:00,64.9,64.9,30.03,North,32767,0.0,0.0,100,0.00,,,0.00,Wunderground v.1.15,2013-12-09 10:50:00,
2013-12-09 04:55:00,65.0,65.0,30.03,North,32767,0.0,0.0,100,0.00,,,0.00,Wunderground v.1.15,2013-12-09 10:55:00,
2013-12-09 05:00:00,65.0,65.0,30.03,North,32767,0.0,0.0,100,0.00,,,0.00,Wunderground v.1.15,2013-12-09 11:00:00,
2013-12-09 05:05:00,65.1,65.1,30.03,North,32767,0.0,0.0,100,0.00,,,0.00,Wunderground v.1.15,2013-12-09 11:05:00,
2013-12-09 05:10:00,65.1,65.1,30.04,North,32767,0.0,0.0,100,0.00,,,0.00,Wunderground v.1.15,2013-12-09 11:10:00,
2013-12-09 05:20:00,63.8,63.8,30.04,North,32767,0.0,0.0,100,0.00,,,0.00,Wunderground v.1.15,2013-12-09 11:20:00,
2013-12-09 05:25:00,63.4,63.4,30.04,North,32767,0.0,0.0,100,0.00,,,0.00,Wunderground v.1.15,2013-12-09 11:25:00,
2013-12-09 05:30:00,63.1,63.1,30.05,North,32767,0.0,0.0,100,0.00,,,0.00,Wunderground v.1.15,2013-12-09 11:30:00,
2013-12-09 05:35:00,63.0,63.0,30.05,North,32767,0.0,0.0,100,0.00,,,0.00,Wunderground v.1.15,2013-12-09 11:35:00,
2013-12-09 05:40:00,62.9,62.9,30.04,North,32767,0.0,0.0,100,0.00,,,0.00,Wunderground v.1.15,2013-12-09 11:40:00,
2013-12-09 05:45:00,62.9,62.9,30.04,North,32767,0.0,0.0,100,0.00,,,0.00,Wunderground v.1.15,2013-12-09 11:45:00,
2013-12-09 05:50:00,62.9,62.9,30.05,North,32767,0.0,0.0,100,0.00,,,0.00,Wunderground v.1.15,2013-12-09 11:50:00,
2013-12-09 05:55:00,62.9,62.9,30.05,North,32767,0.0,0.0,100,0.00,,,0.00,Wunderground v.1.15,2013-12-09 11:55:00,
2013-12-09 06:00:00,62.9,62.9,30.05,North,32767,0.0,0.0,100,0.00,,,0.00,Wunderground v.1.15,2013-12-09 12:00:00,
2013-12-09 06:05:00,63.0,63.0,30.05,North,32767,0.0,0.0,100,0.00,,,0.00,Wunderground v.1.15,2013-12-09 12:05:00,
2013-12-09 06:10:00,63.1,63.1,30.05,North,32767,0.0,0.0,100,0.00,,,0.00,Wunderground v.1.15,2013-12-09 12:10:00,
2013-12-09 06:15:00,63.2,63.2,30.05,North,32767,0.0,0.0,100,0.00,,,0.00,Wunderground v.1.15,2013-12-09 12:15:00,
2013-12-09 06:20:00,63.2,63.2,30.05,North,32767,0.0,0.0,100,0.00,,,0.00,Wunderground v.1.15,2013-12-09 12:20:00,
2013-12-09 06:25:00,63.3,63.3,30.06,North,32767,0.0,0.0,100,0.00,,,0.00,Wunderground v.1.15,2013-12-09 12:25:00,
2013-12-09 06:30:00,63.2,63.2,30.06,North,32767,0.0,0.0,100,0.00,,,0.00,Wunderground v.1.15,2013-12-09 12:30:00,
2013-12-09 06:35:00,63.1,63.1,30.06,North,32767,0.0,0.0,100,0.00,,,0.00,Wunderground v.1.15,2013-12-09 12:35:00,
2013-12-09 06:40:00,62.7,62.7,30.06,North,32767,0.0,0.0,100,0.00,,,0.00,Wunderground v.1.15,2013-12-09 12:40:00,
2013-12-09 06:45:00,62.4,62.4,30.07,North,32767,0.0,0.0,100,0.00,,,0.00,Wunderground v.1.15,2013-12-09 12:45:00,
2013-12-09 06:50:00,61.8,61.8,30.07,North,32767,0.0,0.0,100,0.00,,,0.00,Wunderground v.1.15,2013-12-09 12:50:00,
2013-12-09 06:55:00,61.1,61.1,30.07,North,32767,0.0,0.0,100,0.00,,,0.00,Wunderground v.1.15,2013-12-09 12:55:00,
2013-12-09 07:00:00,60.5,60.5,30.07,North,32767,0.0,0.0,100,0.00,,,0.00,Wunderground v.1.15,2013-12-09 13:00:00,
2013-12-09 07:05:00,60.0,60.0,30.08,North,32767,0.0,0.0,100,0.00,,,0.00,Wunderground v.1.15,2013-12-09 13:05:00,
2013-12-09 07:10:00,59.8,59.8,30.08,North,32767,0.0,0.0,100,0.00,,,0.00,Wunderground v.1.15,2013-12-09 13:10:00,
2013-12-09 07:15:00,59.6,59.6,30.08,North,32767,0.0,0.0,100,0.00,,,0.00,Wunderground v.1.15,2013-12-09 13:15:00,
2013-12-09 07:20:00,59.4,59.4,30.08,North,32767,0.0,0.0,100,0.00,,,0.00,Wunderground v.1.15,2013-12-09 13:20:00,
2013-12-09 07:25:00,59.1,59.1,30.08,North,32767,0.0,0.0,100,0.00,,,0.00,Wunderground v.1.15,2013-12-09 13:25:00,
2013-12-09 07:30:00,58.9,58.9,30.08,North,32767,0.0,0.0,100,0.00,,,0.00,Wunderground v.1.15,2013-12-09 13:30:00,
2013-12-09 07:35:00,58.5,58.5,30.08,North,32767,0.0,0.0,100,0.00,,,0.00,Wunderground v.1.15,2013-12-09 13:35:00,
2013-12-09 07:45:00,58.1,58.1,30.08,North,32767,0.0,0.0,100,0.00,,,0.00,Wunderground v.1.15,2013-12-09 13:45:00,
2013-12-09 07:50:00,58.1,58.1,30.08,North,32767,0.0,0.0,100,0.00,,,0.00,Wunderground v.1.15,2013-12-09 13:50:00,
2013-12-09 07:55:00,58.1,58.1,30.08,North,32767,0.0,0.0,100,0.00,,,0.00,Wunderground v.1.15,2013-12-09 13:55:00,
2013-12-09 08:05:00,58.3,58.3,30.08,North,32767,0.0,0.0,100,0.00,,,0.00,Wunderground v.1.15,2013-12-09 14:05:00,
2013-12-09 08:15:00,58.5,58.5,30.09,North,32767,0.0,0.0,100,0.00,,,0.00,Wunderground v.1.15,2013-12-09 14:15:00,
2013-12-09 08:20:00,58.6,58.6,30.09,North,32767,0.0,0.0,100,0.00,,,0.00,Wunderground v.1.15,2013-12-09 14:20:00,
2013-12-09 08:25:00,58.9,58.9,30.09,North,32767,0.0,0.0,100,0.00,,,0.00,Wunderground v.1.15,2013-12-09 14:25:00,
2013-12-09 08:30:00,59.1,59.1,30.09,North,32767,0.0,0.0,100,0.00,,,0.00,Wunderground v.1.15,2013-12-09 14:30:00,
2013-12-09 08:35:00,59.3,59.3,30.09,North,32767,0.0,0.0,100,0.00,,,0.00,Wunderground v.1.15,2013-12-09 14:35:00,
2013-12-09 08:40:00,59.3,59.3,30.10,North,32767,0.0,0.0,100,0.00,,,0.00,Wunderground v.1.15,2013-12-09 14:40:00,
2013-12-09 08:45:00,59.5,59.5,30.09,North,32767,0.0,0.0,100,0.00,,,0.00,Wunderground v.1.15,2013-12-09 14:45:00,
2013-12-09 08:50:00,59.7,59.7,30.09,North,32767,0.0,0.0,100,0.00,,,0.00,Wunderground v.1.15,2013-12-09 14:50:00,
2013-12-09 08:55:00,59.8,59.8,30.10,North,32767,0.0,0.0,100,0.00,,,0.00,Wunderground v.1.15,2013-12-09 14:55:00,
2013-12-09 09:00:00,60.0,60.0,30.09,North,32767,0.0,0.0,100,0.00,,,0.00,Wunderground v.1.15,2013-12-09 15:00:00,
2013-12-09 09:05:00,60.4,60.4,30.09,North,32767,0.0,0.0,100,0.00,,,0.00,Wunderground v.1.15,2013-12-09 15:05:00,
2013-12-09 09:10:00,60.7,60.7,30.10,North,32767,0.0,0.0,100,0.00,,,0.00,Wunderground v.1.15,2013-12-09 15:10:00,
2013-12-09 09:15:00,61.1,61.1,30.10,North,32767,0.0,0.0,100,0.00,,,0.00,Wunderground v.1.15,2013-12-09 15:15:00,
2013-12-09 09:20:00,61.7,61.7,30.10,North,32767,0.0,0.0,100,0.00,,,0.00,Wunderground v.1.15,2013-12-09 15:20:00,
2013-12-09 09:25:00,62.5,62.5,30.10,North,32767,0.0,0.0,100,0.00,,,0.00,Wunderground v.1.15,2013-12-09 15:25:00,
2013-12-09 09:30:00,62.7,62.7,30.10,North,32767,0.0,0.0,100,0.00,,,0.00,Wunderground v.1.15,2013-12-09 15:30:00,
2013-12-09 09:35:00,62.9,62.9,30.10,North,32767,0.0,0.0,100,0.00,,,0.00,Wunderground v.1.15,2013-12-09 15:35:00,
2013-12-09 09:40:00,63.4,63.4,30.09,North,32767,0.0,0.0,100,0.00,,,0.00,Wunderground v.1.15,2013-12-09 15:40:00,
2013-12-09 09:45:00,64.1,64.1,30.10,North,32767,0.0,0.0,100,0.00,,,0.00,Wunderground v.1.15,2013-12-09 15:45:00,
2013-12-09 09:50:00,64.9,64.9,30.10,North,32767,0.0,0.0,100,0.00,,,0.00,Wunderground v.1.15,2013-12-09 15:50:00,
2013-12-09 09:55:00,65.2,64.6,30.10,North,32767,0.0,0.0,98,0.00,,,0.00,Wunderground v.1.15,2013-12-09 15:55:00,
2013-12-09 10:00:00,65.4,65.1,30.10,North,32767,0.0,0.0,99,0.00,,,0.00,Wunderground v.1.15,2013-12-09 16:00:00,
2013-12-09 10:05:00,65.4,64.5,30.10,North,32767,0.0,0.0,97,0.00,,,0.00,Wunderground v.1.15,2013-12-09 16:05:00,
2013-12-09 10:10:00,65.6,64.7,30.09,North,32767,0.0,0.0,97,0.00,,,0.00,Wunderground v.1.15,2013-12-09 16:10:00,
2013-12-09 10:15:00,66.2,65.3,30.09,North,32767,0.0,0.0,97,0.00,,,0.00,Wunderground v.1.15,2013-12-09 16:15:00,
2013-12-09 10:20:00,66.6,65.4,30.10,North,32767,0.0,0.0,96,0.00,,,0.00,Wunderground v.1.15,2013-12-09 16:20:00,
2013-12-09 10:25:00,66.5,65.0,30.10,North,32767,0.0,0.0,95,0.00,,,0.00,Wunderground v.1.15,2013-12-09 16:25:00,
2013-12-09 10:30:00,66.5,64.7,30.09,North,32767,0.0,0.0,94,0.00,,,0.00,Wunderground v.1.15,2013-12-09 16:30:00,
2013-12-09 10:35:00,66.4,64.9,30.09,North,32767,0.0,0.0,95,0.00,,,0.00,Wunderground v.1.15,2013-12-09 16:35:00,
2013-12-09 10:40:00,66.6,64.8,30.09,North,32767,0.0,0.0,94,0.00,,,0.00,Wunderground v.1.15,2013-12-09 16:40:00,
2013-12-09 10:45:00,66.6,64.8,30.09,North,32767,0.0,0.0,94,0.00,,,0.00,Wunderground v.1.15,2013-12-09 16:45:00,
2013-12-09 10:50:00,66.7,64.9,30.09,North,32767,0.0,0.0,94,0.00,,,0.00,Wunderground v.1.15,2013-12-09 16:50:00,
2013-12-09 10:55:00,66.7,64.6,30.09,North,32767,0.0,0.0,93,0.00,,,0.00,Wunderground v.1.15,2013-12-09 16:55:00,
2013-12-09 11:00:00,66.6,64.5,30.09,North,32767,0.0,0.0,93,0.00,,,0.00,Wunderground v.1.15,2013-12-09 17:00:00,
2013-12-09 11:05:00,66.6,64.8,30.09,North,32767,0.0,0.0,94,0.00,,,0.00,Wunderground v.1.15,2013-12-09 17:05:00,
2013-12-09 11:15:00,66.5,64.7,30.09,North,32767,0.0,0.0,94,0.00,,,0.00,Wunderground v.1.15,2013-12-09 17:15:00,
2013-12-09 11:20:00,66.7,64.9,30.08,North,32767,0.0,0.0,94,0.00,,,0.00,Wunderground v.1.15,2013-12-09 17:20:00,
2013-12-09 11:25:00,67.0,64.9,30.08,North,32767,0.0,0.0,93,0.00,,,0.00,Wunderground v.1.15,2013-12-09 17:25:00,
2013-12-09 11:30:00,67.4,65.3,30.08,North,32767,0.0,0.0,93,0.00,,,0.00,Wunderground v.1.15,2013-12-09 17:30:00,
2013-12-09 11:35:00,67.5,65.4,30.08,North,32767,0.0,0.0,93,0.00,,,0.00,Wunderground v.1.15,2013-12-09 17:35:00,
2013-12-09 11:40:00,67.3,64.9,30.08,North,32767,0.0,0.0,92,0.00,,,0.00,Wunderground v.1.15,2013-12-09 17:40:00,
2013-12-09 11:45:00,67.5,65.4,30.07,North,32767,0.0,0.0,93,0.00,,,0.00,Wunderground v.1.15,2013-12-09 17:45:00,
2013-12-09 11:50:00,68.0,65.9,30.07,North,32767,0.0,0.0,93,0.00,,,0.00,Wunderground v.1.15,2013-12-09 17:50:00,
2013-12-09 11:55:00,68.3,66.2,30.07,North,32767,0.0,0.0,93,0.00,,,0.00,Wunderground v.1.15,2013-12-09 17:55:00,
2013-12-09 12:00:00,68.7,66.6,30.07,North,32767,0.0,0.0,93,0.00,,,0.00,Wunderground v.1.15,2013-12-09 18:00:00,
2013-12-09 12:05:00,69.0,66.6,30.06,North,32767,0.0,0.0,92,0.00,,,0.00,Wunderground v.1.15,2013-12-09 18:05:00,
2013-12-09 12:15:00,69.4,66.7,30.06,North,32767,0.0,0.0,91,0.00,,,0.00,Wunderground v.1.15,2013-12-09 18:15:00,
2013-12-09 12:20:00,69.7,67.0,30.06,North,32767,0.0,0.0,91,0.00,,,0.00,Wunderground v.1.15,2013-12-09 18:20:00,
2013-12-09 12:25:00,69.8,66.7,30.05,North,32767,0.0,0.0,90,0.00,,,0.00,Wunderground v.1.15,2013-12-09 18:25:00,
2013-12-09 12:30:00,70.0,67.3,30.05,North,32767,0.0,0.0,91,0.00,,,0.00,Wunderground v.1.15,2013-12-09 18:30:00,
2013-12-09 12:35:00,70.5,67.7,30.05,North,32767,0.0,0.0,91,0.00,,,0.00,Wunderground v.1.15,2013-12-09 18:35:00,
2013-12-09 12:45:00,71.4,68.3,30.05,North,32767,0.0,0.0,90,0.00,,,0.00,Wunderground v.1.15,2013-12-09 18:45:00,
2013-12-09 12:50:00,72.0,68.2,30.05,North,32767,0.0,0.0,88,0.00,,,0.00,Wunderground v.1.15,2013-12-09 18:50:00,
2013-12-09 12:55:00,72.2,68.1,30.05,North,32767,0.0,0.0,87,0.00,,,0.00,Wunderground v.1.15,2013-12-09 18:55:00,
2013-12-09 13:00:00,72.2,67.8,30.05,North,32767,0.0,0.0,86,0.00,,,0.00,Wunderground v.1.15,2013-12-09 19:00:00,
2013-12-09 13:05:00,72.4,68.6,30.05,North,32767,0.0,0.0,88,0.00,,,0.00,Wunderground v.1.15,2013-12-09 19:05:00,
2013-12-09 13:10:00,72.4,68.0,30.04,North,32767,0.0,0.0,86,0.00,,,0.00,Wunderground v.1.15,2013-12-09 19:10:00,
2013-12-09 13:15:00,72.7,68.3,30.04,North,32767,0.0,0.0,86,0.00,,,0.00,Wunderground v.1.15,2013-12-09 19:15:00,
2013-12-09 13:20:00,72.7,67.9,30.04,North,32767,0.0,0.0,85,0.00,,,0.00,Wunderground v.1.15,2013-12-09 19:20:00,
2013-12-09 13:25:00,73.0,68.6,30.04,North,32767,0.0,0.0,86,0.00,,,0.00,Wunderground v.1.15,2013-12-09 19:25:00,
2013-12-09 13:30:00,72.9,68.1,30.04,North,32767,0.0,0.0,85,0.00,,,0.00,Wunderground v.1.15,2013-12-09 19:30:00,
2013-12-09 13:35:00,73.2,68.8,30.03,North,32767,0.0,0.0,86,0.00,,,0.00,Wunderground v.1.15,2013-12-09 19:35:00,
2013-12-09 13:40:00,73.2,68.4,30.03,North,32767,0.0,0.0,85,0.00,,,0.00,Wunderground v.1.15,2013-12-09 19:40:00,
2013-12-09 13:45:00,73.7,69.2,30.03,North,32767,0.0,0.0,86,0.00,,,0.00,Wunderground v.1.15,2013-12-09 19:45:00,
2013-12-09 13:50:00,73.7,68.2,30.03,North,32767,0.0,0.0,83,0.00,,,0.00,Wunderground v.1.15,2013-12-09 19:50:00,
2013-12-09 13:55:00,73.5,68.7,30.03,North,32767,0.0,0.0,85,0.00,,,0.00,Wunderground v.1.15,2013-12-09 19:55:00,
2013-12-09 14:00:00,73.3,68.5,30.03,North,32767,0.0,0.0,85,0.00,,,0.00,Wunderground v.1.15,2013-12-09 20:00:00,
2013-12-09 14:05:00,73.3,68.2,30.03,North,32767,0.0,0.0,84,0.00,,,0.00,Wunderground v.1.15,2013-12-09 20:05:00,
2013-12-09 14:15:00,72.7,67.9,30.03,North,32767,0.0,0.0,85,0.00,,,0.00,Wunderground v.1.15,2013-12-09 20:15:00,
2013-12-09 14:20:00,72.2,67.4,30.03,North,32767,0.0,0.0,85,0.00,,,0.00,Wunderground v.1.15,2013-12-09 20:20:00,
2013-12-09 14:25:00,71.9,67.8,30.03,North,32767,0.0,0.0,87,0.00,,,0.00,Wunderground v.1.15,2013-12-09 20:25:00,
2013-12-09 14:30:00,71.7,67.6,30.03,North,32767,0.0,0.0,87,0.00,,,0.00,Wunderground v.1.15,2013-12-09 20:30:00,
2013-12-09 14:35:00,71.5,67.4,30.03,North,32767,0.0,0.0,87,0.00,,,0.00,Wunderground v.1.15,2013-12-09 20:35:00,
2013-12-09 14:40:00,71.0,67.3,30.03,North,32767,0.0,0.0,88,0.00,,,0.00,Wunderground v.1.15,2013-12-09 20:40:00,
2013-12-09 14:45:00,71.1,68.0,30.03,North,32767,0.0,0.0,90,0.00,,,0.00,Wunderground v.1.15,2013-12-09 20:45:00,
2013-12-09 14:50:00,71.2,67.5,30.03,North,32767,0.0,0.0,88,0.00,,,0.00,Wunderground v.1.15,2013-12-09 20:50:00,
2013-12-09 14:55:00,70.9,67.5,30.03,North,32767,0.0,0.0,89,0.00,,,0.00,Wunderground v.1.15,2013-12-09 20:55:00,
2013-12-09 15:00:00,70.9,67.8,30.03,North,32767,0.0,0.0,90,0.00,,,0.00,Wunderground v.1.15,2013-12-09 21:00:00,
2013-12-09 15:05:00,71.0,67.6,30.03,North,32767,0.0,0.0,89,0.00,,,0.00,Wunderground v.1.15,2013-12-09 21:05:00,
2013-12-09 15:10:00,71.0,67.9,30.02,North,32767,0.0,0.0,90,0.00,,,0.00,Wunderground v.1.15,2013-12-09 21:10:00,
2013-12-09 15:15:00,70.8,67.7,30.02,North,32767,0.0,0.0,90,0.00,,,0.00,Wunderground v.1.15,2013-12-09 21:15:00,
2013-12-09 15:20:00,70.6,67.5,30.02,North,32767,0.0,0.0,90,0.00,,,0.00,Wunderground v.1.15,2013-12-09 21:20:00,
2013-12-09 15:25:00,70.5,67.4,30.02,North,32767,0.0,0.0,90,0.00,,,0.00,Wunderground v.1.15,2013-12-09 21:25:00,
2013-12-09 15:30:00,70.3,67.2,30.02,North,32767,0.0,0.0,90,0.00,,,0.00,Wunderground v.1.15,2013-12-09 21:30:00,
2013-12-09 15:35:00,70.2,67.1,30.02,North,32767,0.0,0.0,90,0.00,,,0.00,Wunderground v.1.15,2013-12-09 21:35:00,
2013-12-09 15:40:00,70.1,67.3,30.02,North,32767,0.0,0.0,91,0.00,,,0.00,Wunderground v.1.15,2013-12-09 21:40:00,
2013-12-09 15:45:00,69.9,67.2,30.02,North,32767,0.0,0.0,91,0.00,,,0.00,Wunderground v.1.15,2013-12-09 21:45:00,
2013-12-09 15:50:00,69.6,67.2,30.02,North,32767,0.0,0.0,92,0.00,,,0.00,Wunderground v.1.15,2013-12-09 21:50:00,
2013-12-09 15:55:00,69.4,67.0,30.02,North,32767,0.0,0.0,92,0.00,,,0.00,Wunderground v.1.15,2013-12-09 21:55:00,
2013-12-09 16:00:00,69.1,67.0,30.02,North,32767,0.0,0.0,93,0.00,,,0.00,Wunderground v.1.15,2013-12-09 22:00:00,
2013-12-09 16:05:00,68.8,66.7,30.02,North,32767,0.0,0.0,93,0.00,,,0.00,Wunderground v.1.15,2013-12-09 22:05:00,
2013-12-09 16:10:00,68.4,66.6,30.02,North,32767,0.0,0.0,94,0.00,,,0.00,Wunderground v.1.15,2013-12-09 22:10:00,
2013-12-09 16:15:00,68.1,66.3,30.02,North,32767,0.0,0.0,94,0.00,,,0.00,Wunderground v.1.15,2013-12-09 22:15:00,
2013-12-09 16:20:00,67.9,66.1,30.03,North,32767,0.0,0.0,94,0.00,,,0.00,Wunderground v.1.15,2013-12-09 22:20:00,
2013-12-09 16:25:00,67.7,65.9,30.03,North,32767,0.0,0.0,94,0.00,,,0.00,Wunderground v.1.15,2013-12-09 22:25:00,
2013-12-09 16:30:00,67.6,66.1,30.03,North,32767,0.0,0.0,95,0.00,,,0.00,Wunderground v.1.15,2013-12-09 22:30:00,
2013-12-09 16:35:00,67.3,65.8,30.03,North,32767,0.0,0.0,95,0.00,,,0.00,Wunderground v.1.15,2013-12-09 22:35:00,
2013-12-09 16:40:00,67.1,65.9,30.03,North,32767,0.0,0.0,96,0.00,,,0.00,Wunderground v.1.15,2013-12-09 22:40:00,
2013-12-09 16:50:00,66.9,65.4,30.03,North,32767,0.0,0.0,95,0.00,,,0.00,Wunderground v.1.15,2013-12-09 22:50:00,
2013-12-09 16:55:00,66.8,65.6,30.03,North,32767,0.0,0.0,96,0.00,,,0.00,Wunderground v.1.15,2013-12-09 22:55:00,
2013-12-09 17:00:00,66.7,65.5,30.03,North,32767,0.0,0.0,96,0.00,,,0.00,Wunderground v.1.15,2013-12-09 23:00:00,
2013-12-09 17:05:00,66.7,65.5,30.04,North,32767,0.0,0.0,96,0.00,,,0.00,Wunderground v.1.15,2013-12-09 23:05:00,
2013-12-09 17:10:00,66.6,65.4,30.04,North,32767,0.0,0.0,96,0.00,,,0.00,Wunderground v.1.15,2013-12-09 23:10:00,
2013-12-09 17:15:00,66.5,65.3,30.04,North,32767,0.0,0.0,96,0.00,,,0.00,Wunderground v.1.15,2013-12-09 23:15:00,
2013-12-09 17:20:00,66.4,65.5,30.04,North,32767,0.0,0.0,97,0.00,,,0.00,Wunderground v.1.15,2013-12-09 23:20:00,
2013-12-09 17:25:00,66.3,65.4,30.04,North,32767,0.0,0.0,97,0.00,,,0.00,Wunderground v.1.15,2013-12-09 23:25:00,
2013-12-09 17:30:00,66.2,65.6,30.05,North,32767,0.0,0.0,98,0.00,,,0.00,Wunderground v.1.15,2013-12-09 23:30:00,
2013-12-09 17:35:00,66.1,65.5,30.04,North,32767,0.0,0.0,98,0.00,,,0.00,Wunderground v.1.15,2013-12-09 23:35:00,
2013-12-09 17:40:00,66.1,65.5,30.05,North,32767,0.0,0.0,98,0.00,,,0.00,Wunderground v.1.15,2013-12-09 23:40:00,
2013-12-09 17:45:00,66.0,65.7,30.05,North,32767,0.0,0.0,99,0.00,,,0.00,Wunderground v.1.15,2013-12-09 23:45:00,
2013-12-09 17:50:00,65.9,65.6,30.05,North,32767,0.0,0.0,99,0.00,,,0.00,Wunderground v.1.15,2013-12-09 23:50:00,
2013-12-09 17:55:00,65.9,65.6,30.04,North,32767,0.0,0.0,99,0.00,,,0.00,Wunderground v.1.15,2013-12-09 23:55:00,
2013-12-09 18:00:00,65.8,65.5,30.04,North,32767,0.0,0.0,99,0.00,,,0.00,Wunderground v.1.15,2013-12-10 00:00:00,
2013-12-09 18:05:00,65.7,65.4,30.05,North,32767,0.0,0.0,99,0.00,,,0.00,Wunderground v.1.15,2013-12-10 00:05:00,
2013-12-09 18:10:00,65.6,65.3,30.05,North,32767,0.0,0.0,99,0.00,,,0.00,Wunderground v.1.15,2013-12-10 00:10:00,
2013-12-09 18:15:00,65.5,64.9,30.05,North,32767,0.0,0.0,98,0.00,,,0.00,Wunderground v.1.15,2013-12-10 00:15:00,
2013-12-09 18:20:00,65.4,64.5,30.05,North,32767,0.0,0.0,97,0.00,,,0.00,Wunderground v.1.15,2013-12-10 00:20:00,
2013-12-09 18:25:00,65.3,64.4,30.05,North,32767,0.0,0.0,97,0.00,,,0.00,Wunderground v.1.15,2013-12-10 00:25:00,
2013-12-09 18:30:00,65.2,64.3,30.05,North,32767,0.0,0.0,97,0.00,,,0.00,Wunderground v.1.15,2013-12-10 00:30:00,
2013-12-09 18:35:00,65.0,63.8,30.05,North,32767,0.0,0.0,96,0.00,,,0.00,Wunderground v.1.15,2013-12-10 00:35:00,
2013-12-09 18:45:00,64.6,63.4,30.06,North,32767,0.0,0.0,96,0.00,,,0.00,Wunderground v.1.15,2013-12-10 00:45:00,
2013-12-09 18:50:00,64.4,63.2,30.06,North,32767,0.0,0.0,96,0.00,,,0.00,Wunderground v.1.15,2013-12-10 00:50:00,
2013-12-09 18:55:00,64.2,63.0,30.06,North,32767,0.0,0.0,96,0.00,,,0.00,Wunderground v.1.15,2013-12-10 00:55:00,
2013-12-09 19:00:00,64.1,62.9,30.06,North,32767,0.0,0.0,96,0.00,,,0.00,Wunderground v.1.15,2013-12-10 01:00:00,
2013-12-09 19:05:00,64.0,63.1,30.06,North,32767,0.0,0.0,97,0.00,,,0.00,Wunderground v.1.15,2013-12-10 01:05:00,
2013-12-09 19:10:00,63.8,62.9,30.06,North,32767,0.0,0.0,97,0.00,,,0.00,Wunderground v.1.15,2013-12-10 01:10:00,
2013-12-09 19:15:00,63.6,62.7,30.06,North,32767,0.0,0.0,97,0.00,,,0.00,Wunderground v.1.15,2013-12-10 01:15:00,
2013-12-09 19:20:00,63.5,62.9,30.05,North,32767,0.0,0.0,98,0.00,,,0.00,Wunderground v.1.15,2013-12-10 01:20:00,
2013-12-09 19:25:00,63.3,62.7,30.06,North,32767,0.0,0.0,98,0.00,,,0.00,Wunderground v.1.15,2013-12-10 01:25:00,
2013-12-09 19:30:00,63.2,62.6,30.05,North,32767,0.0,0.0,98,0.00,,,0.00,Wunderground v.1.15,2013-12-10 01:30:00,
2013-12-09 19:35:00,63.0,62.4,30.05,North,32767,0.0,0.0,98,0.00,,,0.00,Wunderground v.1.15,2013-12-10 01:35:00,
2013-12-09 19:40:00,62.8,62.2,30.05,North,32767,0.0,0.0,98,0.00,,,0.00,Wunderground v.1.15,2013-12-10 01:40:00,
2013-12-09 19:45:00,62.7,62.4,30.06,North,32767,0.0,0.0,99,0.00,,,0.00,Wunderground v.1.15,2013-12-10 01:45:00,
2013-12-09 19:55:00,62.5,62.2,30.06,North,32767,0.0,0.0,99,0.00,,,0.00,Wunderground v.1.15,2013-12-10 01:55:00,
2013-12-09 20:00:00,62.4,61.8,30.06,North,32767,0.0,0.0,98,0.00,,,0.00,Wunderground v.1.15,2013-12-10 02:00:00,
2013-12-09 20:05:00,62.4,62.1,30.06,North,32767,0.0,0.0,99,0.00,,,0.00,Wunderground v.1.15,2013-12-10 02:05:00,
2013-12-09 20:10:00,62.3,62.0,30.06,North,32767,0.0,0.0,99,0.00,,,0.00,Wunderground v.1.15,2013-12-10 02:10:00,
2013-12-09 20:15:00,62.3,62.0,30.06,North,32767,0.0,0.0,99,0.00,,,0.00,Wunderground v.1.15,2013-12-10 02:15:00,
2013-12-09 20:20:00,62.3,62.0,30.06,North,32767,0.0,0.0,99,0.00,,,0.00,Wunderground v.1.15,2013-12-10 02:20:00,
2013-12-09 20:25:00,62.2,61.9,30.06,North,32767,0.0,0.0,99,0.00,,,0.00,Wunderground v.1.15,2013-12-10 02:25:00,
2013-12-09 20:30:00,62.2,61.9,30.06,North,32767,0.0,0.0,99,0.00,,,0.00,Wunderground v.1.15,2013-12-10 02:30:00,
2013-12-09 20:35:00,62.1,61.8,30.05,North,32767,0.0,0.0,99,0.00,,,0.00,Wunderground v.1.15,2013-12-10 02:35:00,
2013-12-09 20:40:00,62.1,61.8,30.05,North,32767,0.0,0.0,99,0.00,,,0.00,Wunderground v.1.15,2013-12-10 02:40:00,
2013-12-09 20:45:00,62.0,61.7,30.05,North,32767,0.0,0.0,99,0.00,,,0.00,Wunderground v.1.15,2013-12-10 02:45:00,
2013-12-09 20:50:00,61.9,61.6,30.05,North,32767,0.0,0.0,99,0.00,,,0.00,Wunderground v.1.15,2013-12-10 02:50:00,
2013-12-09 20:55:00,61.8,61.5,30.05,North,32767,0.0,0.0,99,0.00,,,0.00,Wunderground v.1.15,2013-12-10 02:55:00,
2013-12-09 21:00:00,61.8,61.5,30.05,North,32767,0.0,0.0,99,0.00,,,0.00,Wunderground v.1.15,2013-12-10 03:00:00,
2013-12-09 21:05:00,61.8,61.5,30.05,North,32767,0.0,0.0,99,0.00,,,0.00,Wunderground v.1.15,2013-12-10 03:05:00,
2013-12-09 21:15:00,61.9,61.6,30.05,North,32767,0.0,0.0,99,0.00,,,0.00,Wunderground v.1.15,2013-12-10 03:15:00,
2013-12-09 21:20:00,61.8,61.5,30.04,North,32767,0.0,0.0,99,0.00,,,0.00,Wunderground v.1.15,2013-12-10 03:20:00,
2013-12-09 21:25:00,61.9,61.6,30.04,North,32767,0.0,0.0,99,0.00,,,0.00,Wunderground v.1.15,2013-12-10 03:25:00,
2013-12-09 21:30:00,61.9,61.6,30.04,North,32767,0.0,0.0,99,0.00,,,0.00,Wunderground v.1.15,2013-12-10 03:30:00,
2013-12-09 21:35:00,61.9,61.6,30.04,North,32767,0.0,0.0,99,0.00,,,0.00,Wunderground v.1.15,2013-12-10 03:35:00,
2013-12-09 21:40:00,61.8,61.5,30.04,North,32767,0.0,0.0,99,0.00,,,0.00,Wunderground v.1.15,2013-12-10 03:40:00,
2013-12-09 21:45:00,61.7,61.4,30.04,North,32767,0.0,0.0,99,0.00,,,0.00,Wunderground v.1.15,2013-12-10 03:45:00,
2013-12-09 21:50:00,61.6,61.6,30.04,North,32767,0.0,0.0,100,0.00,,,0.00,Wunderground v.1.15,2013-12-10 03:50:00,
2013-12-09 21:55:00,61.5,61.5,30.04,North,32767,0.0,0.0,100,0.00,,,0.00,Wunderground v.1.15,2013-12-10 03:55:00,
2013-12-09 22:00:00,61.5,61.5,30.04,North,32767,0.0,0.0,100,0.00,,,0.00,Wunderground v.1.15,2013-12-10 04:00:00,
2013-12-09 22:05:00,61.4,61.4,30.04,North,32767,0.0,0.0,100,0.00,,,0.00,Wunderground v.1.15,2013-12-10 04:05:00,
2013-12-09 22:15:00,61.4,61.4,30.04,North,32767,0.0,0.0,100,0.00,,,0.00,Wunderground v.1.15,2013-12-10 04:15:00,
2013-12-09 22:20:00,61.4,61.4,30.04,North,32767,0.0,0.0,100,0.00,,,0.00,Wunderground v.1.15,2013-12-10 04:20:00,
2013-12-09 22:25:00,61.4,61.4,30.04,North,32767,0.0,0.0,100,0.00,,,0.00,Wunderground v.1.15,2013-12-10 04:25:00,
2013-12-09 22:30:00,61.5,61.5,30.04,North,32767,0.0,0.0,100,0.00,,,0.00,Wunderground v.1.15,2013-12-10 04:30:00,
2013-12-09 22:35:00,61.5,61.5,30.04,North,32767,0.0,0.0,100,0.00,,,0.00,Wunderground v.1.15,2013-12-10 04:35:00,
2013-12-09 22:40:00,61.5,61.5,30.05,North,32767,0.0,0.0,100,0.00,,,0.00,Wunderground v.1.15,2013-12-10 04:40:00,
2013-12-09 22:45:00,61.6,61.6,30.05,North,32767,0.0,0.0,100,0.00,,,0.00,Wunderground v.1.15,2013-12-10 04:45:00,
2013-12-09 22:50:00,61.7,61.7,30.04,North,32767,0.0,0.0,100,0.00,,,0.00,Wunderground v.1.15,2013-12-10 04:50:00,
2013-12-09 22:55:00,61.7,61.7,30.04,North,32767,0.0,0.0,100,0.00,,,0.00,Wunderground v.1.15,2013-12-10 04:55:00,
2013-12-09 23:00:00,61.8,61.8,30.04,North,32767,0.0,0.0,100,0.00,,,0.00,Wunderground v.1.15,2013-12-10 05:00:00,
2013-12-09 23:05:00,61.8,61.8,30.03,North,32767,0.0,0.0,100,0.00,,,0.00,Wunderground v.1.15,2013-12-10 05:05:00,
2013-12-09 23:10:00,61.9,61.9,30.03,North,32767,0.0,0.0,100,0.00,,,0.00,Wunderground v.1.15,2013-12-10 05:10:00,
2013-12-09 23:15:00,62.0,62.0,30.03,North,32767,0.0,0.0,100,0.00,,,0.00,Wunderground v.1.15,2013-12-10 05:15:00,
2013-12-09 23:20:00,62.0,62.0,30.03,North,32767,0.0,0.0,100,0.00,,,0.00,Wunderground v.1.15,2013-12-10 05:20:00,
2013-12-09 23:25:00,62.1,62.1,30.03,North,32767,0.0,0.0,100,0.00,,,0.00,Wunderground v.1.15,2013-12-10 05:25:00,
2013-12-09 23:30:00,62.1,62.1,30.03,North,32767,0.0,0.0,100,0.00,,,0.00,Wunderground v.1.15,2013-12-10 05:30:00,
2013-12-09 23:35:00,62.1,62.1,30.02,North,32767,0.0,0.0,100,0.00,,,0.00,Wunderground v.1.15,2013-12-10 05:35:00,
2013-12-09 23:40:00,62.1,62.1,30.02,North,32767,0.0,0.0,100,0.00,,,0.00,Wunderground v.1.15,2013-12-10 05:40:00,
2013-12-09 23:45:00,62.0,62.0,30.02,North,32767,0.0,0.0,100,0.00,,,0.00,Wunderground v.1.15,2013-12-10 05:45:00,
2013-12-09 23:50:00,62.0,62.0,30.02,North,32767,0.0,0.0,100,0.00,,,0.00,Wunderground v.1.15,2013-12-10 05:50:00,
2013-12-09 23:55:00,61.8,61.8,30.02,North,32767,0.0,0.0,100,0.00,,,0.00,Wunderground v.1.15,2013-12-10 05:55:00,